createdAt,value
2022-08-29T05:35:25.435Z,16.55
2022-08-29T05:55:21.565Z,16.99
2022-08-29T05:58:09.185Z,17.14
2022-08-29T06:01:01.282Z,17.31
2022-08-29T06:03:49.743Z,17.47
2022-08-29T06:06:37.014Z,17.63
2022-08-29T06:09:41.128Z,17.72
2022-08-29T06:12:38.361Z,17.94
2022-08-29T06:15:30.268Z,18.05
2022-08-29T06:18:18.445Z,17.91
2022-08-29T06:21:11.818Z,17.80
2022-08-29T06:23:59.884Z,17.51
2022-08-29T06:29:57.337Z,17.11
2022-08-29T06:32:47.353Z,17.34
2022-08-29T06:35:34.038Z,17.58
2022-08-29T06:38:21.007Z,17.78
2022-08-29T06:41:09.399Z,17.97
2022-08-29T06:43:58.665Z,18.05
2022-08-29T06:46:49.188Z,18.20
2022-08-29T06:49:36.137Z,18.44
2022-08-29T06:52:31.627Z,18.67
2022-08-29T06:55:24.164Z,18.80
2022-08-29T06:58:13.286Z,19.62
2022-08-29T07:04:14.670Z,19.74
2022-08-29T07:07:02.706Z,19.78
2022-08-29T07:09:50.874Z,20.37
2022-08-29T07:21:02.892Z,24.28
2022-08-29T07:23:51.344Z,25.64
2022-08-29T07:26:45.182Z,27.25
2022-08-29T07:29:50.888Z,28.22
2022-08-29T07:32:42.785Z,29.62
2022-08-29T07:35:31.020Z,30.17
2022-08-29T07:38:26.103Z,30.95
2022-08-29T07:41:40.502Z,30.36
2022-08-29T07:44:39.943Z,31.46
2022-08-29T07:50:50.554Z,31.19
2022-08-29T07:53:38.760Z,28.99
2022-08-29T08:00:52.564Z,26.34
2022-08-29T08:03:53.520Z,25.10
2022-08-29T08:11:14.080Z,26.50
2022-08-29T08:14:04.952Z,25.13
2022-08-29T08:16:52.090Z,24.27
2022-08-29T08:19:39.503Z,23.25
2022-08-29T08:22:26.708Z,23.13
2022-08-29T08:25:14.146Z,23.95
2022-08-29T08:28:00.869Z,23.41
2022-08-29T08:33:55.662Z,22.95
2022-08-29T08:36:47.516Z,23.04
2022-08-29T08:39:34.693Z,26.37
2022-08-29T08:42:32.915Z,28.75
2022-08-29T08:46:04.349Z,29.82
2022-08-29T08:48:53.075Z,29.24
2022-08-29T08:51:56.933Z,28.66
2022-08-29T08:54:52.419Z,30.41
2022-08-29T08:57:46.989Z,28.12
2022-08-29T09:00:46.213Z,26.97
2022-08-29T09:04:14.448Z,26.29
2022-08-29T09:14:02.666Z,25.07
2022-08-29T09:17:14.012Z,24.10
2022-08-29T09:20:02.902Z,23.82
2022-08-29T09:23:11.810Z,23.30
2022-08-29T09:27:09.720Z,23.05
2022-08-29T09:30:03.084Z,23.09
2022-08-29T09:37:05.462Z,22.66
2022-08-29T09:39:59.272Z,22.52
2022-08-29T09:43:01.378Z,22.50
2022-08-29T09:46:21.287Z,22.66
2022-08-29T09:49:14.874Z,22.56
2022-08-29T09:52:15.326Z,22.74
2022-08-29T09:55:41.573Z,23.17
2022-08-29T09:58:39.676Z,23.28
2022-08-29T10:01:28.190Z,23.60
2022-08-29T10:04:40.060Z,23.55
2022-08-29T10:07:42.698Z,23.58
2022-08-29T10:41:47.118Z,24.80
2022-08-29T10:48:10.216Z,23.67
2022-08-29T10:54:40.910Z,22.63
2022-08-29T10:57:50.765Z,21.97
2022-08-29T11:00:45.947Z,21.72
2022-08-29T11:03:40.550Z,22.12
2022-08-29T11:10:05.092Z,22.13
2022-08-29T11:43:12.236Z,22.90
2022-08-29T11:51:01.936Z,22.80
2022-08-29T12:03:30.935Z,21.93
2022-08-29T12:07:10.300Z,22.20
2022-08-29T12:10:04.297Z,22.33
2022-08-29T12:13:03.709Z,21.99
2022-08-29T12:15:56.624Z,21.71
2022-08-29T12:19:08.452Z,21.49
2022-08-29T13:39:47.877Z,22.04
2022-08-29T13:59:45.251Z,21.69
2022-08-29T14:03:27.349Z,21.86
2022-08-29T14:10:26.268Z,21.50
2022-08-29T15:02:20.196Z,20.71
2022-08-29T15:09:40.123Z,20.47
2022-08-29T15:12:35.994Z,20.49
2022-08-29T15:15:30.154Z,20.43
2022-08-29T15:19:33.703Z,20.25
2022-08-29T15:22:02.714Z,20.10
2022-08-29T15:24:56.647Z,19.99
2022-08-29T15:27:48.546Z,19.71
2022-08-29T15:34:47.897Z,19.53
2022-08-29T15:37:37.124Z,19.47
2022-08-29T15:40:28.367Z,19.16
2022-08-29T15:46:53.860Z,19.19
2022-08-29T15:52:56.189Z,19.22
2022-08-29T15:55:47.581Z,19.13
2022-08-29T16:02:48.322Z,18.81
2022-08-29T16:05:47.782Z,18.87
2022-08-29T16:41:56.069Z,19.45
2022-08-29T16:45:22.061Z,19.42
2022-08-29T16:48:17.684Z,19.13
2022-08-29T16:51:18.983Z,19.19
2022-08-29T16:54:06.789Z,19.29
2022-08-29T16:56:57.520Z,19.67
2022-08-29T16:59:44.206Z,19.48
2022-08-29T17:05:45.725Z,19.06
2022-08-29T17:08:31.354Z,18.70
2022-08-29T17:14:23.505Z,18.10
2022-08-29T17:20:38.690Z,17.81
2022-08-29T17:26:33.342Z,17.57
2022-08-29T17:32:38.182Z,17.46
2022-08-29T17:38:33.637Z,17.36
2022-08-29T17:44:29.694Z,17.31
2022-08-29T17:50:43.717Z,17.37
2022-08-29T17:59:52.743Z,17.39
2022-08-29T18:05:48.549Z,17.24
2022-08-29T18:11:51.502Z,17.07
2022-08-29T18:17:50.085Z,17.06
2022-08-29T18:23:52.109Z,17.10
2022-08-29T18:29:49.000Z,17.08
2022-08-29T18:35:41.709Z,17.09
2022-08-29T20:14:26.137Z,15.10
2022-08-29T20:17:30.632Z,15.02
2022-08-29T20:20:31.476Z,15.00
2022-08-29T20:23:22.916Z,15.00
2022-08-29T20:26:15.228Z,15.00
2022-08-29T20:29:07.403Z,15.05
2022-08-29T20:31:58.112Z,15.06
2022-08-29T20:35:04.933Z,15.11
2022-08-29T20:37:56.372Z,15.20
2022-08-29T20:40:48.249Z,15.26
2022-08-29T20:43:39.127Z,15.32
2022-08-29T20:46:26.156Z,15.33
2022-08-29T20:49:17.540Z,15.38
2022-08-29T20:52:06.868Z,15.40
2022-08-29T20:58:24.882Z,15.47
2022-08-29T21:01:17.403Z,15.49
2022-08-29T21:04:30.475Z,15.46
2022-08-29T21:08:43.502Z,15.47
2022-08-29T21:13:08.136Z,15.44
2022-08-29T21:19:56.033Z,15.30
2022-08-29T21:22:48.278Z,15.23
2022-08-29T21:25:37.233Z,15.16
2022-08-29T21:28:26.329Z,15.08
2022-08-29T21:31:17.245Z,15.03
2022-08-29T21:34:07.150Z,15.02
2022-08-29T21:36:54.689Z,15.04
2022-08-29T21:39:45.737Z,15.09
2022-08-29T21:42:34.831Z,15.13
2022-08-29T21:45:23.405Z,15.20
2022-08-29T21:48:12.549Z,15.21
2022-08-29T21:51:00.145Z,15.20
2022-08-29T21:53:49.789Z,15.22
2022-08-29T21:56:37.675Z,15.21
2022-08-29T21:59:28.451Z,15.20
2022-08-29T22:05:24.235Z,15.09
2022-08-29T22:08:14.042Z,15.00
2022-08-29T22:11:01.360Z,14.91
2022-08-29T22:13:49.137Z,14.88
2022-08-29T22:16:44.940Z,14.86
2022-08-29T22:19:36.338Z,14.83
2022-08-29T22:22:24.985Z,14.82
2022-08-29T22:25:12.011Z,14.81
2022-08-29T22:27:59.396Z,14.80
2022-08-29T22:30:47.064Z,14.81
2022-08-29T22:33:35.534Z,14.81
2022-08-29T22:36:22.741Z,14.81
2022-08-29T22:39:15.715Z,14.80
2022-08-29T22:42:03.652Z,14.78
2022-08-29T22:45:10.225Z,14.77
2022-08-29T22:47:59.216Z,14.73
2022-08-29T22:50:51.980Z,14.71
2022-08-29T22:54:06.682Z,14.73
2022-08-29T22:56:55.461Z,14.76
2022-08-29T22:59:45.384Z,14.77
2022-08-29T23:05:38.114Z,14.82
2022-08-29T23:11:31.824Z,14.92
2022-08-29T23:14:21.878Z,14.98
2022-08-29T23:17:10.246Z,15.03
2022-08-29T23:19:56.946Z,15.09
2022-08-29T23:22:45.740Z,15.12
2022-08-29T23:25:33.131Z,15.16
2022-08-29T23:28:21.398Z,15.17
2022-08-29T23:31:10.801Z,15.19
2022-08-29T23:33:58.164Z,15.18
2022-08-29T23:36:46.844Z,15.18
2022-08-29T23:39:33.963Z,15.17
2022-08-29T23:42:22.273Z,15.16
2022-08-29T23:45:11.490Z,15.16
2022-08-29T23:48:00.743Z,15.16
2022-08-29T23:50:49.035Z,15.15
2022-08-29T23:56:42.576Z,15.11
2022-08-29T23:59:47.494Z,15.09
